Time;durP1;ratioP1;P1;durP2;ratioP2;P2;SDS_P1;SDS_P2;PMS_P1;PMS_P2;Temp;Humidity;BMP_temperature;BMP_pressure;BME280_temperature;BME280_humidity;BME280_pressure;Samples;Min_cycle;Max_cycle;Signal;HPM_P1;HPM_P2
2022/11/28 00:00:52;;;;;;;33.53;15.80;;;;;;;;;;5061692;28;20238;-81
2022/11/28 00:03:21;;;;;;;24.43;14.30;;;;;;;;;;5064590;28;20198;-78
2022/11/28 00:05:49;;;;;;;32.07;15.57;;;;;;;;;;5067918;28;20210;-77
2022/11/28 00:08:17;;;;;;;29.83;14.97;;;;;;;;;;5071310;28;20269;-78
2022/11/28 00:10:44;;;;;;;28.77;14.17;;;;;;;;;;5065558;28;20333;-78
2022/11/28 00:13:11;;;;;;;29.33;15.17;;;;;;;;;;5061724;28;20227;-78
2022/11/28 00:15:38;;;;;;;37.00;14.90;;;;;;;;;;5059906;28;20418;-77
2022/11/28 00:18:05;;;;;;;32.07;15.63;;;;;;;;;;5066384;28;20306;-77
2022/11/28 00:20:33;;;;;;;33.20;15.30;;;;;;;;;;5068436;28;20191;-78
2022/11/28 00:23:01;;;;;;;36.67;15.40;;;;;;;;;;5075225;28;20647;-78
2022/11/28 00:25:28;;;;;;;33.77;15.50;;;;;;;;;;5063818;28;20237;-78
2022/11/28 00:27:56;;;;;;;32.17;15.80;;;;;;;;;;5057306;28;20835;-78
2022/11/28 00:30:23;;;;;;;35.67;16.60;;;;;;;;;;5064688;28;20361;-78
2022/11/28 00:32:50;;;;;;;33.90;16.03;;;;;;;;;;5064679;28;20260;-78
2022/11/28 00:35:17;;;;;;;33.83;16.17;;;;;;;;;;5057903;28;20231;-78
2022/11/28 00:37:45;;;;;;;30.70;15.90;;;;;;;;;;5071441;28;20219;-78
2022/11/28 00:40:13;;;;;;;34.83;15.77;;;;;;;;;;5069014;28;20305;-78
2022/11/28 00:42:40;;;;;;;34.03;15.33;;;;;;;;;;5074629;28;20302;-78
2022/11/28 00:45:08;;;;;;;35.80;15.57;;;;;;;;;;5075497;28;20235;-77
2022/11/28 00:47:36;;;;;;;37.37;16.13;;;;;;;;;;5056385;28;20226;-78
2022/11/28 00:50:03;;;;;;;27.27;14.53;;;;;;;;;;5055468;28;20231;-78
2022/11/28 00:52:32;;;;;;;39.10;14.43;;;;;;;;;;5055484;28;20286;-78
2022/11/28 00:54:59;;;;;;;38.57;15.80;;;;;;;;;;5055976;28;20607;-77
2022/11/28 00:57:28;;;;;;;37.80;15.43;;;;;;;;;;5056154;28;20235;-78
2022/11/28 00:59:55;;;;;;;38.37;15.27;;;;;;;;;;5055247;28;20334;-78
2022/11/28 01:02:23;;;;;;;36.30;14.97;;;;;;;;;;5072622;28;20249;-78
2022/11/28 01:04:50;;;;;;;35.80;14.43;;;;;;;;;;5065322;28;20207;-78
2022/11/28 01:07:17;;;;;;;28.73;13.50;;;;;;;;;;5062528;28;20726;-78
2022/11/28 01:09:44;;;;;;;31.27;13.67;;;;;;;;;;5062995;28;20287;-78
2022/11/28 01:12:12;;;;;;;29.93;12.50;;;;;;;;;;5065569;28;20272;-78
2022/11/28 01:14:40;;;;;;;35.93;12.77;;;;;;;;;;5067135;28;20644;-78
2022/11/28 01:17:07;;;;;;;28.10;11.73;;;;;;;;;;5054707;28;20290;-78
2022/11/28 01:19:35;;;;;;;31.27;11.90;;;;;;;;;;5067767;28;20713;-78
2022/11/28 01:22:02;;;;;;;30.47;12.43;;;;;;;;;;5059452;28;20220;-78
2022/11/28 01:24:29;;;;;;;27.80;12.07;;;;;;;;;;5066789;28;20203;-80
2022/11/28 01:26:59;;;;;;;29.40;12.23;;;;;;;;;;5053752;28;20718;-81
2022/11/28 01:29:26;;;;;;;24.83;11.97;;;;;;;;;;5056331;28;20723;-81
2022/11/28 01:31:56;;;;;;;26.43;12.70;;;;;;;;;;5070519;28;20320;-81
2022/11/28 01:34:23;;;;;;;32.53;14.17;;;;;;;;;;5069821;28;20283;-81
2022/11/28 01:36:50;;;;;;;39.80;13.20;;;;;;;;;;5060961;28;20218;-81
2022/11/28 01:39:17;;;;;;;27.20;12.33;;;;;;;;;;5062707;28;20231;-81
2022/11/28 01:41:45;;;;;;;23.40;11.60;;;;;;;;;;5068419;28;20672;-81
2022/11/28 01:44:27;;;;;;;28.07;11.50;;;;;;;;;;5057224;28;20222;-79
2022/11/28 01:46:56;;;;;;;28.63;11.17;;;;;;;;;;5065884;28;20196;-81
2022/11/28 01:49:26;;;;;;;33.87;11.27;;;;;;;;;;5062059;28;20290;-80
2022/11/28 01:51:57;;;;;;;25.53;10.83;;;;;;;;;;5067528;28;20354;-80
2022/11/28 01:54:24;;;;;;;26.53;10.63;;;;;;;;;;5071061;28;20195;-81
2022/11/28 01:56:54;;;;;;;30.00;10.40;;;;;;;;;;5058081;28;20286;-81
2022/11/28 01:59:25;;;;;;;24.07;10.53;;;;;;;;;;5074247;28;20241;-81
2022/11/28 02:01:52;;;;;;;23.33;9.00;;;;;;;;;;5074057;28;20195;-81
2022/11/28 02:04:21;;;;;;;25.77;9.33;;;;;;;;;;5073682;28;20253;-80
2022/11/28 02:06:48;;;;;;;24.77;10.70;;;;;;;;;;5073785;28;20314;-81
2022/11/28 02:09:16;;;;;;;31.17;12.80;;;;;;;;;;5072877;28;20286;-81
2022/11/28 02:12:00;;;;;;;25.57;10.77;;;;;;;;;;5071651;28;20249;-81
2022/11/28 02:14:36;;;;;;;35.00;12.87;;;;;;;;;;5056911;28;20239;-80
2022/11/28 02:17:09;;;;;;;31.27;13.37;;;;;;;;;;5068943;28;20734;-81
2022/11/28 02:19:57;;;;;;;28.13;13.07;;;;;;;;;;5063796;28;20281;-81
2022/11/28 02:22:29;;;;;;;32.23;12.23;;;;;;;;;;5053367;28;20275;-81
2022/11/28 02:25:02;;;;;;;25.07;11.30;;;;;;;;;;5057109;28;20238;-81
2022/11/28 02:27:41;;;;;;;24.90;10.47;;;;;;;;;;5055962;28;20283;-81
2022/11/28 02:30:12;;;;;;;25.40;10.60;;;;;;;;;;5060963;28;20235;-80
2022/11/28 02:32:45;;;;;;;32.63;11.43;;;;;;;;;;5072302;28;20309;-80
2022/11/28 02:35:17;;;;;;;29.33;9.47;;;;;;;;;;5055553;28;20572;-80
2022/11/28 02:37:45;;;;;;;34.83;9.37;;;;;;;;;;5068946;28;20698;-81
2022/11/28 02:40:17;;;;;;;28.00;8.43;;;;;;;;;;5069552;28;20242;-80
2022/11/28 02:42:50;;;;;;;27.17;8.40;;;;;;;;;;5060378;28;20227;-80
2022/11/28 02:45:20;;;;;;;22.13;8.07;;;;;;;;;;5060792;28;20286;-80
2022/11/28 02:47:53;;;;;;;27.17;8.20;;;;;;;;;;5068986;28;20207;-80
2022/11/28 02:50:22;;;;;;;27.33;8.33;;;;;;;;;;5056200;28;20234;-81
2022/11/28 02:52:51;;;;;;;28.87;8.70;;;;;;;;;;5070441;28;20257;-80
2022/11/28 02:55:18;;;;;;;26.07;8.30;;;;;;;;;;5059805;28;20253;-80
2022/11/28 02:57:48;;;;;;;25.50;7.37;;;;;;;;;;5069925;28;20620;-80
2022/11/28 03:00:29;;;;;;;30.97;8.23;;;;;;;;;;5055787;28;20204;-81
2022/11/28 03:03:09;;;;;;;20.93;7.20;;;;;;;;;;5064031;28;20600;-81
2022/11/28 03:05:40;;;;;;;31.17;6.97;;;;;;;;;;5052965;28;20701;-81
2022/11/28 03:08:18;;;;;;;28.53;6.67;;;;;;;;;;5054861;28;20749;-81
2022/11/28 03:10:49;;;;;;;21.03;6.90;;;;;;;;;;5037688;28;20234;-80
2022/11/28 03:13:22;;;;;;;24.93;6.47;;;;;;;;;;5063569;28;20234;-81
2022/11/28 03:15:53;;;;;;;32.73;5.70;;;;;;;;;;5053047;28;20231;-81
2022/11/28 03:18:24;;;;;;;18.63;5.97;;;;;;;;;;5064587;28;20229;-80
2022/11/28 03:20:55;;;;;;;25.13;6.53;;;;;;;;;;5072757;28;20291;-80
2022/11/28 03:23:25;;;;;;;23.13;5.77;;;;;;;;;;5069798;28;20290;-80
2022/11/28 03:25:56;;;;;;;28.13;6.80;;;;;;;;;;5032460;28;20634;-81
2022/11/28 03:28:25;;;;;;;29.90;6.03;;;;;;;;;;5032100;28;20239;-80
2022/11/28 03:30:56;;;;;;;21.13;6.10;;;;;;;;;;5060624;28;20262;-81
2022/11/28 03:33:26;;;;;;;28.73;6.10;;;;;;;;;;5070211;28;20235;-80
2022/11/28 03:35:55;;;;;;;23.63;5.73;;;;;;;;;;5063885;28;20230;-80
2022/11/28 03:38:26;;;;;;;25.97;5.63;;;;;;;;;;5057070;28;20304;-80
2022/11/28 03:40:56;;;;;;;24.57;5.67;;;;;;;;;;5071501;28;20232;-80
2022/11/28 03:43:26;;;;;;;21.67;5.30;;;;;;;;;;5072732;28;20293;-80
2022/11/28 03:45:57;;;;;;;17.43;4.97;;;;;;;;;;5072510;28;20231;-80
2022/11/28 03:48:29;;;;;;;23.73;5.33;;;;;;;;;;5072768;28;20218;-80
2022/11/28 03:50:59;;;;;;;24.23;5.00;;;;;;;;;;5064019;28;20232;-80
2022/11/28 03:53:28;;;;;;;25.97;5.23;;;;;;;;;;5056346;28;20289;-80
2022/11/28 03:55:57;;;;;;;23.77;4.67;;;;;;;;;;5050385;28;20230;-80
2022/11/28 03:58:28;;;;;;;24.93;4.70;;;;;;;;;;5056572;28;20242;-81
2022/11/28 04:01:00;;;;;;;24.03;4.80;;;;;;;;;;5072628;28;20689;-80
2022/11/28 04:03:34;;;;;;;20.80;4.63;;;;;;;;;;5061689;28;20244;-80
2022/11/28 04:06:06;;;;;;;19.23;4.87;;;;;;;;;;5063380;28;20623;-80
2022/11/28 04:08:36;;;;;;;21.67;4.10;;;;;;;;;;5069803;28;20303;-80
2022/11/28 04:11:06;;;;;;;29.20;4.57;;;;;;;;;;5058169;28;20704;-80
2022/11/28 04:13:38;;;;;;;23.73;4.30;;;;;;;;;;5069954;28;20287;-80
2022/11/28 04:16:07;;;;;;;27.27;4.63;;;;;;;;;;5065224;28;20281;-80
2022/11/28 04:18:38;;;;;;;26.27;4.07;;;;;;;;;;5062788;28;20241;-80
2022/11/28 04:21:09;;;;;;;21.83;4.27;;;;;;;;;;5072163;28;20209;-80
2022/11/28 04:23:37;;;;;;;17.60;4.60;;;;;;;;;;5060448;28;20281;-80
2022/11/28 04:26:07;;;;;;;31.53;4.23;;;;;;;;;;5066674;28;20760;-80
2022/11/28 04:28:35;;;;;;;24.23;4.50;;;;;;;;;;5074336;28;20232;-80
2022/11/28 04:31:08;;;;;;;20.90;4.20;;;;;;;;;;5075915;28;20286;-80
2022/11/28 04:33:38;;;;;;;21.90;4.30;;;;;;;;;;5067214;28;20574;-80
2022/11/28 04:36:08;;;;;;;22.57;4.30;;;;;;;;;;5067646;28;20282;-80
2022/11/28 04:38:38;;;;;;;22.73;4.10;;;;;;;;;;5074773;28;20215;-80
2022/11/28 04:41:07;;;;;;;19.97;4.10;;;;;;;;;;5069285;28;20279;-80
2022/11/28 04:43:36;;;;;;;23.77;4.10;;;;;;;;;;5064491;28;20231;-80
2022/11/28 04:46:06;;;;;;;30.83;4.20;;;;;;;;;;5070113;28;20252;-80
2022/11/28 04:48:34;;;;;;;21.37;4.37;;;;;;;;;;5057795;28;20920;-80
2022/11/28 04:51:06;;;;;;;22.70;3.67;;;;;;;;;;5070115;28;20417;-80
2022/11/28 04:53:36;;;;;;;24.50;3.97;;;;;;;;;;5064459;28;20219;-80
2022/11/28 04:56:05;;;;;;;15.80;3.83;;;;;;;;;;5061449;28;20227;-80
2022/11/28 04:58:36;;;;;;;25.13;3.80;;;;;;;;;;5069508;28;20231;-80
2022/11/28 05:01:05;;;;;;;27.00;3.90;;;;;;;;;;5059887;28;20259;-80
2022/11/28 05:03:33;;;;;;;22.00;4.00;;;;;;;;;;5066461;28;20203;-80
2022/11/28 05:06:01;;;;;;;18.17;3.87;;;;;;;;;;5061920;28;20291;-80
2022/11/28 05:08:29;;;;;;;23.10;4.13;;;;;;;;;;5070465;28;20263;-80
2022/11/28 05:10:56;;;;;;;22.23;4.10;;;;;;;;;;5058033;28;20227;-80
2022/11/28 05:13:24;;;;;;;21.77;3.83;;;;;;;;;;5067967;28;20670;-80
2022/11/28 05:15:51;;;;;;;22.53;3.53;;;;;;;;;;5064475;28;20286;-81
2022/11/28 05:18:18;;;;;;;18.97;3.47;;;;;;;;;;5057649;28;20230;-80
2022/11/28 05:20:45;;;;;;;17.57;3.63;;;;;;;;;;5055840;28;20290;-80
2022/11/28 05:23:12;;;;;;;19.27;4.10;;;;;;;;;;5062022;28;20223;-80
2022/11/28 05:25:41;;;;;;;19.63;4.37;;;;;;;;;;5065601;28;20614;-80
2022/11/28 05:28:11;;;;;;;22.23;3.73;;;;;;;;;;5073758;28;20667;-80
2022/11/28 05:30:38;;;;;;;21.10;3.60;;;;;;;;;;5059468;28;20668;-81
2022/11/28 05:33:05;;;;;;;20.90;3.60;;;;;;;;;;5054428;28;20733;-80
2022/11/28 05:35:33;;;;;;;20.07;3.57;;;;;;;;;;5069673;28;20237;-80
2022/11/28 05:38:00;;;;;;;16.57;3.83;;;;;;;;;;5064911;28;20750;-80
2022/11/28 05:40:27;;;;;;;21.33;3.90;;;;;;;;;;5063073;28;20278;-79
2022/11/28 05:42:56;;;;;;;15.60;3.87;;;;;;;;;;5064501;28;20203;-80
2022/11/28 05:45:23;;;;;;;17.60;3.63;;;;;;;;;;5057559;28;20282;-80
2022/11/28 05:47:50;;;;;;;17.73;3.80;;;;;;;;;;5066269;28;20669;-80
2022/11/28 05:50:17;;;;;;;19.00;3.50;;;;;;;;;;5064437;28;20282;-80
2022/11/28 05:52:44;;;;;;;19.23;3.83;;;;;;;;;;5053834;28;20302;-80
2022/11/28 05:55:12;;;;;;;22.90;3.60;;;;;;;;;;5053604;28;20238;-80
2022/11/28 05:57:39;;;;;;;13.80;3.37;;;;;;;;;;5038427;28;20695;-80
2022/11/28 06:00:09;;;;;;;21.50;3.70;;;;;;;;;;5065284;28;20222;-80
2022/11/28 06:02:36;;;;;;;16.77;3.33;;;;;;;;;;5064494;28;20224;-80
2022/11/28 06:05:03;;;;;;;23.40;3.50;;;;;;;;;;5063431;28;20226;-84
2022/11/28 06:07:31;;;;;;;20.73;4.17;;;;;;;;;;5065254;28;20231;-83
2022/11/28 06:09:58;;;;;;;13.97;3.77;;;;;;;;;;5062247;28;20226;-82
2022/11/28 06:12:25;;;;;;;21.50;4.57;;;;;;;;;;5063367;28;20263;-82
2022/11/28 06:14:53;;;;;;;20.03;4.47;;;;;;;;;;5061574;28;20235;-83
2022/11/28 06:17:21;;;;;;;17.73;4.30;;;;;;;;;;5066821;28;20296;-84
2022/11/28 06:19:49;;;;;;;23.00;4.93;;;;;;;;;;5064886;28;20732;-82
2022/11/28 06:22:16;;;;;;;22.67;4.00;;;;;;;;;;5060249;28;20197;-82
2022/11/28 06:24:44;;;;;;;18.70;4.20;;;;;;;;;;5053504;28;20246;-82
2022/11/28 06:27:12;;;;;;;22.07;5.00;;;;;;;;;;5052859;28;20203;-81
2022/11/28 06:29:40;;;;;;;24.80;5.53;;;;;;;;;;5061851;28;20718;-83
2022/11/28 06:32:07;;;;;;;19.27;4.90;;;;;;;;;;5055471;28;20262;-81
2022/11/28 06:34:36;;;;;;;14.90;4.63;;;;;;;;;;5056547;28;20254;-82
2022/11/28 06:37:03;;;;;;;18.97;4.10;;;;;;;;;;5045793;28;20636;-80
2022/11/28 06:42:13;;;;;;;21.20;4.70;;;;;;;;;;5049652;28;20207;-80
2022/11/28 06:44:43;;;;;;;18.87;4.00;;;;;;;;;;5053399;28;20231;-80
2022/11/28 06:47:10;;;;;;;19.30;4.63;;;;;;;;;;5051455;28;20314;-83
2022/11/28 06:49:39;;;;;;;12.93;3.60;;;;;;;;;;5056373;28;20289;-82
2022/11/28 06:52:06;;;;;;;17.13;4.37;;;;;;;;;;5060104;28;20222;-82
2022/11/28 06:54:33;;;;;;;18.97;3.80;;;;;;;;;;5073142;28;20259;-82
2022/11/28 06:57:01;;;;;;;16.03;3.87;;;;;;;;;;5072574;28;20231;-82
2022/11/28 06:59:28;;;;;;;13.50;3.73;;;;;;;;;;5072729;28;20686;-82
2022/11/28 07:01:56;;;;;;;15.27;3.07;;;;;;;;;;5072995;28;20191;-82
2022/11/28 07:04:23;;;;;;;15.40;3.83;;;;;;;;;;5071540;28;20204;-82
2022/11/28 07:06:52;;;;;;;14.10;3.33;;;;;;;;;;5072692;28;20273;-82
2022/11/28 07:09:19;;;;;;;15.60;3.30;;;;;;;;;;5072264;28;20244;-83
2022/11/28 07:11:46;;;;;;;15.53;3.03;;;;;;;;;;5073060;28;20238;-82
2022/11/28 07:14:16;;;;;;;13.80;3.10;;;;;;;;;;5072174;28;20317;-82
2022/11/28 07:16:44;;;;;;;19.03;3.47;;;;;;;;;;5072356;28;20597;-82
2022/11/28 07:19:11;;;;;;;16.20;3.23;;;;;;;;;;5072162;28;20213;-82
2022/11/28 07:21:39;;;;;;;14.57;2.93;;;;;;;;;;5072651;28;20205;-82
2022/11/28 07:24:08;;;;;;;17.00;3.20;;;;;;;;;;5068856;28;20203;-82
2022/11/28 07:26:36;;;;;;;17.13;4.03;;;;;;;;;;5072559;28;20234;-82
2022/11/28 07:29:06;;;;;;;18.53;3.67;;;;;;;;;;5071733;28;20220;-82
2022/11/28 07:31:33;;;;;;;16.50;3.47;;;;;;;;;;5072248;28;20229;-82
2022/11/28 07:34:01;;;;;;;12.83;3.27;;;;;;;;;;5072286;28;20254;-82
2022/11/28 07:36:29;;;;;;;15.43;3.30;;;;;;;;;;5072173;28;20203;-82
2022/11/28 07:38:57;;;;;;;17.87;3.47;;;;;;;;;;5072825;28;20199;-82
2022/11/28 07:41:26;;;;;;;19.23;3.63;;;;;;;;;;5072388;28;20234;-82
2022/11/28 07:43:54;;;;;;;17.33;2.90;;;;;;;;;;5072176;28;20283;-82
2022/11/28 07:46:22;;;;;;;12.57;3.00;;;;;;;;;;5072158;28;20302;-82
2022/11/28 07:48:49;;;;;;;9.47;3.30;;;;;;;;;;5056935;28;20712;-82
2022/11/28 07:51:21;;;;;;;15.43;3.50;;;;;;;;;;5087651;28;20203;-82
2022/11/28 07:53:48;;;;;;;20.33;3.70;;;;;;;;;;5072420;28;20247;-82
2022/11/28 07:56:19;;;;;;;16.50;3.27;;;;;;;;;;5072283;28;20253;-82
2022/11/28 07:58:48;;;;;;;17.77;3.80;;;;;;;;;;5071944;28;20235;-82
2022/11/28 08:01:16;;;;;;;11.17;4.07;;;;;;;;;;5071692;28;20209;-82
2022/11/28 08:03:45;;;;;;;17.77;3.87;;;;;;;;;;5071342;28;20279;-83
2022/11/28 08:06:12;;;;;;;12.93;3.30;;;;;;;;;;5070797;28;20201;-82
2022/11/28 08:08:40;;;;;;;17.60;4.40;;;;;;;;;;5070483;28;20273;-82
2022/11/28 08:11:08;;;;;;;20.50;5.30;;;;;;;;;;5072283;28;20280;-82
2022/11/28 08:13:36;;;;;;;15.77;4.87;;;;;;;;;;5071801;28;20239;-82
2022/11/28 08:16:06;;;;;;;26.80;5.23;;;;;;;;;;5071908;28;20761;-82
2022/11/28 08:18:34;;;;;;;14.27;4.07;;;;;;;;;;5071188;28;20294;-82
2022/11/28 08:21:05;;;;;;;16.73;4.23;;;;;;;;;;5071459;28;20245;-83
2022/11/28 08:23:34;;;;;;;14.60;3.50;;;;;;;;;;5071626;28;20282;-82
2022/11/28 08:26:01;;;;;;;10.73;3.37;;;;;;;;;;5072216;28;20554;-82
2022/11/28 08:28:28;;;;;;;11.90;3.67;;;;;;;;;;5071615;28;20209;-82
2022/11/28 08:30:56;;;;;;;11.23;3.60;;;;;;;;;;5072341;28;20287;-82
2022/11/28 08:33:25;;;;;;;11.80;3.60;;;;;;;;;;5053416;28;20323;-82
2022/11/28 08:35:52;;;;;;;13.93;3.37;;;;;;;;;;5066136;28;20594;-82
2022/11/28 08:38:21;;;;;;;46.77;4.47;;;;;;;;;;5075917;28;20295;-82
2022/11/28 08:40:48;;;;;;;11.90;2.97;;;;;;;;;;5075477;28;20241;-82
2022/11/28 08:43:15;;;;;;;8.40;3.10;;;;;;;;;;5075512;28;20227;-83
2022/11/28 08:45:42;;;;;;;11.33;3.13;;;;;;;;;;5075302;28;20238;-83
2022/11/28 08:48:09;;;;;;;7.53;2.53;;;;;;;;;;5075178;28;20234;-83
2022/11/28 08:50:39;;;;;;;8.00;2.75;;;;;;;;;;5065393;28;20286;-83
2022/11/28 08:53:06;;;;;;;7.00;2.30;;;;;;;;;;5055250;28;20219;-83
2022/11/28 08:55:33;;;;;;;8.33;2.00;;;;;;;;;;5059579;28;20234;-82
2022/11/28 08:58:00;;;;;;;5.85;2.10;;;;;;;;;;5075404;28;20242;-83
2022/11/28 09:00:28;;;;;;;7.95;2.15;;;;;;;;;;5074482;28;20234;-83
2022/11/28 09:02:55;;;;;;;6.55;1.70;;;;;;;;;;5074865;28;20738;-83
2022/11/28 09:05:23;;;;;;;5.93;1.60;;;;;;;;;;5074666;28;20230;-83
2022/11/28 09:07:54;;;;;;;9.10;2.00;;;;;;;;;;5074077;28;20321;-83
2022/11/28 09:10:21;;;;;;;6.45;1.55;;;;;;;;;;5055447;28;20608;-83
2022/11/28 09:12:49;;;;;;;6.07;1.35;;;;;;;;;;5060113;28;22170;-84
2022/11/28 09:15:16;;;;;;;3.60;1.60;;;;;;;;;;5075177;28;20199;-83
2022/11/28 09:17:43;;;;;;;5.90;1.95;;;;;;;;;;5074805;28;20229;-83
2022/11/28 09:20:11;;;;;;;6.40;1.40;;;;;;;;;;5074371;28;20631;-83
2022/11/28 09:22:39;;;;;;;4.47;1.75;;;;;;;;;;5074664;28;20241;-82
2022/11/28 09:25:09;;;;;;;6.33;1.73;;;;;;;;;;5056931;28;20287;-83
2022/11/28 09:27:36;;;;;;;4.33;1.50;;;;;;;;;;5054693;28;20291;-83
2022/11/28 09:30:03;;;;;;;7.27;1.90;;;;;;;;;;5054247;28;20686;-83
2022/11/28 09:32:30;;;;;;;6.30;2.30;;;;;;;;;;5065000;28;20211;-83
2022/11/28 09:34:58;;;;;;;4.33;1.37;;;;;;;;;;5074174;28;20254;-83
2022/11/28 09:37:25;;;;;;;5.00;1.67;;;;;;;;;;5066750;28;20287;-83
2022/11/28 09:39:52;;;;;;;6.07;1.80;;;;;;;;;;5054493;28;20304;-82
2022/11/28 09:42:23;;;;;;;9.33;2.07;;;;;;;;;;5054783;28;20282;-83
2022/11/28 09:44:52;;;;;;;7.97;2.00;;;;;;;;;;5067105;28;20229;-83
2022/11/28 09:47:22;;;;;;;6.37;1.63;;;;;;;;;;5073728;28;20631;-83
2022/11/28 09:49:52;;;;;;;5.03;1.80;;;;;;;;;;5074097;28;20665;-83
2022/11/28 09:52:26;;;;;;;6.17;1.47;;;;;;;;;;5074289;28;20206;-83
2022/11/28 09:54:58;;;;;;;7.63;1.80;;;;;;;;;;5068838;28;20676;-83
2022/11/28 09:57:31;;;;;;;7.10;1.80;;;;;;;;;;5058560;28;20199;-83
2022/11/28 09:59:58;;;;;;;7.70;2.00;;;;;;;;;;5073776;28;20675;-83
2022/11/28 10:02:27;;;;;;;5.10;2.00;;;;;;;;;;5074432;28;20234;-83
2022/11/28 10:05:01;;;;;;;5.37;1.90;;;;;;;;;;5074249;28;20223;-83
2022/11/28 10:07:34;;;;;;;7.53;2.00;;;;;;;;;;5073732;28;20576;-83
2022/11/28 10:10:05;;;;;;;6.50;2.00;;;;;;;;;;5072663;28;20241;-84
2022/11/28 10:12:40;;;;;;;7.60;2.17;;;;;;;;;;5073762;28;20199;-83
2022/11/28 10:15:14;;;;;;;6.73;1.77;;;;;;;;;;5073520;28;20314;-83
2022/11/28 10:17:48;;;;;;;5.30;1.97;;;;;;;;;;5073901;28;20552;-83
2022/11/28 10:20:19;;;;;;;6.30;1.80;;;;;;;;;;5073388;28;20728;-84
2022/11/28 10:22:49;;;;;;;6.03;1.50;;;;;;;;;;5073788;28;20566;-84
2022/11/28 10:25:18;;;;;;;5.33;1.57;;;;;;;;;;5073173;28;20238;-84
2022/11/28 10:27:48;;;;;;;5.93;1.60;;;;;;;;;;5073417;28;20665;-84
2022/11/28 10:30:22;;;;;;;5.37;1.60;;;;;;;;;;5073493;28;20398;-84
2022/11/28 10:32:54;;;;;;;6.13;1.70;;;;;;;;;;5060158;28;20659;-84
2022/11/28 10:35:25;;;;;;;5.37;1.67;;;;;;;;;;5065594;28;20199;-83
2022/11/28 10:37:55;;;;;;;4.47;1.40;;;;;;;;;;5073615;28;20277;-84
2022/11/28 10:40:26;;;;;;;5.57;1.87;;;;;;;;;;5056917;28;20308;-84
2022/11/28 10:42:57;;;;;;;5.63;1.47;;;;;;;;;;5053384;28;20294;-83
2022/11/28 10:45:28;;;;;;;6.37;1.53;;;;;;;;;;5052940;28;20223;-84
2022/11/28 10:48:05;;;;;;;5.20;1.50;;;;;;;;;;5053529;28;20239;-84
2022/11/28 10:50:34;;;;;;;4.33;1.27;;;;;;;;;;5071500;28;20296;-84
2022/11/28 10:53:04;;;;;;;6.77;1.50;;;;;;;;;;5072945;28;20269;-83
2022/11/28 10:55:38;;;;;;;7.60;1.90;;;;;;;;;;5073565;28;20291;-83
2022/11/28 10:58:10;;;;;;;6.90;1.20;;;;;;;;;;5072052;28;20231;-84
2022/11/28 11:00:38;;;;;;;6.53;2.53;;;;;;;;;;5073109;28;20234;-84
2022/11/28 11:03:06;;;;;;;7.33;2.47;;;;;;;;;;5072737;28;20294;-84
2022/11/28 11:05:34;;;;;;;7.17;2.20;;;;;;;;;;5072030;28;20222;-84
2022/11/28 11:08:03;;;;;;;6.83;1.80;;;;;;;;;;5071404;28;20660;-84
2022/11/28 11:10:33;;;;;;;3.67;1.10;;;;;;;;;;5072095;28;20571;-83
2022/11/28 11:13:00;;;;;;;3.30;0.80;;;;;;;;;;5073110;28;20238;-84
2022/11/28 11:15:34;;;;;;;2.87;0.80;;;;;;;;;;5072560;28;20310;-84
2022/11/28 11:18:04;;;;;;;3.73;0.90;;;;;;;;;;5072974;28;20252;-83
2022/11/28 11:20:33;;;;;;;5.07;0.93;;;;;;;;;;5060537;28;20250;-83
2022/11/28 11:23:02;;;;;;;4.17;0.87;;;;;;;;;;5052890;28;20227;-83
2022/11/28 11:25:29;;;;;;;2.03;0.70;;;;;;;;;;5052240;28;20279;-83
2022/11/28 11:27:59;;;;;;;2.17;0.80;;;;;;;;;;5052706;28;20227;-84
2022/11/28 11:30:27;;;;;;;2.80;0.80;;;;;;;;;;5052649;28;20215;-83
2022/11/28 11:32:58;;;;;;;2.23;0.77;;;;;;;;;;5066541;28;20234;-84
2022/11/28 11:35:27;;;;;;;1.97;0.80;;;;;;;;;;5071062;28;20698;-84
2022/11/28 11:37:55;;;;;;;2.50;0.77;;;;;;;;;;5072475;28;20577;-84
2022/11/28 11:40:26;;;;;;;2.50;0.73;;;;;;;;;;5072354;28;20229;-83
2022/11/28 11:42:55;;;;;;;1.87;0.67;;;;;;;;;;5072245;28;20675;-83
2022/11/28 11:45:30;;;;;;;3.57;0.97;;;;;;;;;;5072420;28;20210;-83
2022/11/28 11:47:59;;;;;;;2.23;0.50;;;;;;;;;;5072506;28;20738;-83
2022/11/28 11:50:27;;;;;;;2.53;0.70;;;;;;;;;;5071171;28;20241;-83
2022/11/28 11:53:06;;;;;;;2.57;0.83;;;;;;;;;;5072497;28;20203;-84
2022/11/28 11:55:38;;;;;;;3.60;0.90;;;;;;;;;;5071588;28;20232;-83
2022/11/28 11:58:05;;;;;;;2.73;0.90;;;;;;;;;;5072566;28;20625;-84
2022/11/28 12:00:35;;;;;;;3.93;0.97;;;;;;;;;;5072240;28;20285;-84
2022/11/28 12:03:07;;;;;;;3.73;1.03;;;;;;;;;;5072109;28;20230;-84
2022/11/28 12:05:39;;;;;;;2.53;0.90;;;;;;;;;;5063510;28;20218;-84
2022/11/28 12:08:10;;;;;;;3.50;1.23;;;;;;;;;;5051813;28;20315;-84
2022/11/28 12:10:41;;;;;;;3.00;1.10;;;;;;;;;;5052902;28;20254;-83
2022/11/28 12:13:14;;;;;;;3.38;1.10;;;;;;;;;;5056297;28;20282;-84
2022/11/28 12:15:47;;;;;;;2.57;0.80;;;;;;;;;;5065820;28;20703;-83
2022/11/28 12:18:21;;;;;;;4.03;1.15;;;;;;;;;;5076488;28;20211;-84
2022/11/28 12:20:55;;;;;;;2.38;0.90;;;;;;;;;;5075084;28;20226;-84
2022/11/28 12:23:33;;;;;;;3.28;1.08;;;;;;;;;;5075796;28;20233;-83
2022/11/28 12:26:03;;;;;;;2.75;1.00;;;;;;;;;;5075895;28;20283;-84
2022/11/28 12:28:37;;;;;;;5.15;1.20;;;;;;;;;;5075962;28;20233;-84
2022/11/28 12:31:09;;;;;;;1.40;0.90;;;;;;;;;;5075957;28;20253;-84
2022/11/28 12:33:43;;;;;;;1.83;0.80;;;;;;;;;;5035339;28;20201;-83
2022/11/28 12:36:13;;;;;;;2.05;0.90;;;;;;;;;;5035609;28;20606;-84
2022/11/28 12:38:51;;;;;;;2.33;1.00;;;;;;;;;;5035408;28;20240;-84
2022/11/28 12:41:27;;;;;;;3.47;0.88;;;;;;;;;;5046500;28;20201;-84
2022/11/28 12:43:58;;;;;;;4.95;0.90;;;;;;;;;;5074287;28;20227;-84
2022/11/28 12:46:28;;;;;;;4.35;1.20;;;;;;;;;;5060183;28;20250;-84
2022/11/28 12:49:03;;;;;;;4.40;1.10;;;;;;;;;;5055142;28;20249;-84
2022/11/28 12:51:37;;;;;;;5.28;1.33;;;;;;;;;;5055499;28;20202;-84
2022/11/28 12:54:12;;;;;;;5.30;1.40;;;;;;;;;;5073299;28;20296;-84
2022/11/28 12:56:48;;;;;;;4.80;1.63;;;;;;;;;;5074063;28;20705;-83
2022/11/28 12:59:21;;;;;;;5.60;1.37;;;;;;;;;;5075697;28;20198;-84
2022/11/28 13:01:56;;;;;;;3.53;1.37;;;;;;;;;;5075054;28;20207;-84
2022/11/28 13:04:35;;;;;;;6.70;1.83;;;;;;;;;;5070111;28;20281;-84
2022/11/28 13:07:11;;;;;;;7.13;2.13;;;;;;;;;;5074006;28;20262;-84
2022/11/28 13:09:39;;;;;;;7.83;1.70;;;;;;;;;;5075033;28;20291;-82
2022/11/28 13:12:15;;;;;;;7.43;1.73;;;;;;;;;;5074975;28;20234;-84
2022/11/28 13:14:48;;;;;;;4.97;1.30;;;;;;;;;;5075214;28;20640;-83
2022/11/28 13:17:23;;;;;;;7.93;1.67;;;;;;;;;;5075018;28;20286;-84
2022/11/28 13:19:53;;;;;;;8.23;1.97;;;;;;;;;;5074346;28;20681;-83
2022/11/28 13:22:24;;;;;;;4.83;1.40;;;;;;;;;;5073551;28;20203;-84
2022/11/28 13:24:56;;;;;;;9.87;1.77;;;;;;;;;;5074443;28;20203;-83
2022/11/28 13:27:31;;;;;;;9.50;1.83;;;;;;;;;;5074629;28;20205;-83
2022/11/28 13:30:06;;;;;;;4.93;1.30;;;;;;;;;;5072992;28;20218;-83
2022/11/28 13:32:36;;;;;;;5.43;1.87;;;;;;;;;;5073968;28;20741;-84
2022/11/28 13:35:05;;;;;;;6.83;1.70;;;;;;;;;;5074200;28;20914;-83
2022/11/28 13:37:36;;;;;;;3.90;1.50;;;;;;;;;;5074428;28;20226;-83
2022/11/28 13:40:08;;;;;;;8.27;2.20;;;;;;;;;;5071880;28;20295;-83
2022/11/28 13:42:38;;;;;;;6.57;1.70;;;;;;;;;;5054917;28;20287;-84
2022/11/28 13:45:20;;;;;;;8.97;1.90;;;;;;;;;;5053888;28;20710;-83
2022/11/28 13:47:47;;;;;;;4.70;1.20;;;;;;;;;;5065057;28;20198;-83
2022/11/28 13:50:47;;;;;;;5.33;1.50;;;;;;;;;;5073873;28;20203;-84
2022/11/28 13:53:26;;;;;;;6.07;1.50;;;;;;;;;;4995024;28;20240;-83
2022/11/28 13:56:14;;;;;;;7.03;1.40;;;;;;;;;;4992528;28;20229;-83
2022/11/28 13:58:43;;;;;;;7.73;1.60;;;;;;;;;;4992575;28;20301;-84
2022/11/28 14:01:11;;;;;;;5.07;1.50;;;;;;;;;;4992423;28;20256;-83
2022/11/28 14:03:45;;;;;;;5.07;1.00;;;;;;;;;;4992537;28;20244;-84
2022/11/28 14:06:13;;;;;;;3.53;1.00;;;;;;;;;;4992474;28;20217;-83
2022/11/28 14:08:43;;;;;;;6.90;1.60;;;;;;;;;;4992258;28;20303;-84
2022/11/28 14:11:29;;;;;;;3.93;1.03;;;;;;;;;;4992343;28;20245;-83
2022/11/28 14:14:07;;;;;;;5.17;1.10;;;;;;;;;;4992332;28;20241;-84
2022/11/28 14:16:44;;;;;;;4.50;1.23;;;;;;;;;;4992385;28;20244;-84
2022/11/28 14:19:16;;;;;;;5.03;1.20;;;;;;;;;;4989858;28;20206;-84
2022/11/28 14:21:50;;;;;;;6.70;1.20;;;;;;;;;;4993434;28;20289;-84
2022/11/28 14:24:23;;;;;;;5.67;1.53;;;;;;;;;;5016478;28;20283;-84
2022/11/28 14:26:56;;;;;;;6.67;1.50;;;;;;;;;;5034002;28;20204;-84
2022/11/28 14:29:25;;;;;;;5.00;1.73;;;;;;;;;;5033697;28;20310;-84
2022/11/28 14:31:55;;;;;;;6.63;1.83;;;;;;;;;;5045227;28;20209;-84
2022/11/28 14:34:38;;;;;;;5.50;1.47;;;;;;;;;;5072530;28;20252;-83
2022/11/28 14:37:26;;;;;;;3.97;1.50;;;;;;;;;;5073309;28;20209;-83
2022/11/28 14:39:55;;;;;;;5.37;1.30;;;;;;;;;;5072989;28;20203;-84
2022/11/28 14:42:35;;;;;;;4.07;1.23;;;;;;;;;;5071037;28;20276;-83
2022/11/28 14:45:03;;;;;;;4.57;1.30;;;;;;;;;;5053078;28;20222;-84
2022/11/28 14:47:33;;;;;;;3.87;1.27;;;;;;;;;;5052868;28;20245;-83
2022/11/28 14:50:16;;;;;;;5.43;1.60;;;;;;;;;;5053140;28;20282;-83
2022/11/28 14:52:45;;;;;;;4.73;2.00;;;;;;;;;;5044703;28;20238;-84